createdAt,value
2022-08-08T00:02:04.151Z,18.90
2022-08-08T00:06:04.049Z,18.80
2022-08-08T00:10:17.361Z,18.60
2022-08-08T00:14:47.699Z,18.50
2022-08-08T00:18:30.641Z,18.40
2022-08-08T00:22:56.064Z,18.40
2022-08-08T00:26:43.099Z,18.30
2022-08-08T00:30:30.864Z,18.40
2022-08-08T00:35:08.859Z,18.30
2022-08-08T00:39:36.245Z,18.20
2022-08-08T00:43:41.446Z,18.20
2022-08-08T00:48:05.417Z,18.00
2022-08-08T00:52:22.939Z,18.00
2022-08-08T00:56:50.914Z,17.90
2022-08-08T01:00:50.666Z,17.80
2022-08-08T01:05:03.964Z,17.70
2022-08-08T01:09:34.834Z,17.60
2022-08-08T01:13:58.494Z,17.50
2022-08-08T01:17:53.933Z,17.30
2022-08-08T01:22:12.790Z,17.30
2022-08-08T01:26:13.887Z,17.10
2022-08-08T01:30:54.096Z,17.00
2022-08-08T01:35:01.404Z,16.90
2022-08-08T01:38:56.239Z,16.80
2022-08-08T01:43:04.168Z,16.70
2022-08-08T01:48:14.872Z,16.60
2022-08-08T01:52:52.643Z,16.60
2022-08-08T01:56:30.974Z,16.50
2022-08-08T02:00:18.581Z,16.40
2022-08-08T02:04:04.157Z,16.40
2022-08-08T02:08:23.813Z,16.30
2022-08-08T02:12:53.493Z,16.20
2022-08-08T02:16:52.536Z,16.20
2022-08-08T02:21:18.341Z,16.10
2022-08-08T02:25:23.068Z,16.00
2022-08-08T02:29:52.674Z,15.90
2022-08-08T02:34:14.841Z,15.80
2022-08-08T02:38:34.102Z,15.70
2022-08-08T02:42:35.975Z,15.70
2022-08-08T02:46:37.136Z,15.60
2022-08-08T02:51:05.260Z,15.50
2022-08-08T02:54:50.383Z,15.40
2022-08-08T02:58:47.641Z,15.40
2022-08-08T03:03:08.046Z,15.30
2022-08-08T03:07:23.076Z,15.20
2022-08-08T03:12:01.801Z,15.20
2022-08-08T03:16:13.042Z,15.20
2022-08-08T03:20:15.565Z,15.10
2022-08-08T03:24:02.038Z,15.00
2022-08-08T03:28:10.236Z,14.90
2022-08-08T03:32:13.081Z,14.80
2022-08-08T03:35:56.115Z,14.80
2022-08-08T03:39:51.510Z,14.70
2022-08-08T03:43:38.455Z,14.70
2022-08-08T03:47:22.643Z,14.60
2022-08-08T03:51:07.399Z,14.60
2022-08-08T03:55:02.562Z,14.60
2022-08-08T03:58:53.230Z,14.50
2022-08-08T04:02:47.061Z,14.50
2022-08-08T04:06:30.631Z,14.50
2022-08-08T04:10:12.720Z,14.40
2022-08-08T04:14:03.943Z,14.30
2022-08-08T04:17:58.739Z,14.30
2022-08-08T04:21:45.706Z,14.20
2022-08-08T04:25:29.662Z,14.10
2022-08-08T04:29:12.400Z,14.10
2022-08-08T04:32:57.031Z,14.00
2022-08-08T04:36:38.923Z,13.90
2022-08-08T04:40:23.859Z,13.90
2022-08-08T04:44:06.453Z,13.80
2022-08-08T04:47:48.250Z,13.80
2022-08-08T04:51:55.041Z,13.80
2022-08-08T04:55:47.322Z,13.80
2022-08-08T04:59:42.214Z,13.70
2022-08-08T05:04:10.101Z,13.70
2022-08-08T05:07:26.985Z,13.60
2022-08-08T05:11:23.826Z,13.60
2022-08-08T05:15:08.186Z,13.50
2022-08-08T05:18:56.399Z,13.50
2022-08-08T05:22:39.441Z,13.50
2022-08-08T05:26:22.513Z,13.40
2022-08-08T05:30:12.819Z,13.40
2022-08-08T05:33:54.766Z,13.40
2022-08-08T05:37:52.025Z,13.40
2022-08-08T05:41:54.654Z,13.40
2022-08-08T05:45:43.246Z,13.40
2022-08-08T05:49:38.028Z,13.40
2022-08-08T05:54:24.129Z,13.40
2022-08-08T05:58:05.453Z,13.50
2022-08-08T06:01:55.980Z,13.50
2022-08-08T06:05:44.391Z,13.50
2022-08-08T06:10:00.402Z,13.50
2022-08-08T06:13:47.343Z,13.50
2022-08-08T06:17:50.924Z,13.50
2022-08-08T06:21:57.020Z,13.60
2022-08-08T06:26:35.697Z,13.60
2022-08-08T06:30:20.143Z,13.60
2022-08-08T06:34:26.504Z,13.70
2022-08-08T06:38:14.434Z,13.70
2022-08-08T06:41:58.182Z,13.80
2022-08-08T06:45:40.413Z,13.90
2022-08-08T06:49:55.664Z,13.90
2022-08-08T06:53:38.885Z,14.00
2022-08-08T06:57:25.135Z,14.20
2022-08-08T07:02:17.389Z,14.40
2022-08-08T07:05:20.501Z,14.70
2022-08-08T07:09:21.293Z,14.80
2022-08-08T07:13:07.468Z,15.00
2022-08-08T07:17:09.549Z,15.10
2022-08-08T07:21:04.829Z,15.30
2022-08-08T07:25:02.322Z,15.40
2022-08-08T07:28:44.775Z,15.40
2022-08-08T07:32:27.918Z,15.60
2022-08-08T07:36:11.579Z,15.60
2022-08-08T07:39:59.916Z,15.70
2022-08-08T07:43:53.438Z,15.80
2022-08-08T07:47:39.179Z,15.90
2022-08-08T07:51:23.840Z,16.00
2022-08-08T07:55:36.453Z,16.10
2022-08-08T07:59:20.862Z,16.20
2022-08-08T08:03:20.326Z,16.30
2022-08-08T08:07:08.550Z,16.40
2022-08-08T08:10:52.258Z,16.50
2022-08-08T08:15:02.978Z,16.70
2022-08-08T08:18:56.411Z,16.80
2022-08-08T08:22:38.680Z,16.90
2022-08-08T08:26:27.602Z,17.10
2022-08-08T08:30:11.027Z,17.20
2022-08-08T08:33:53.207Z,17.30
2022-08-08T08:37:52.847Z,17.40
2022-08-08T08:41:39.037Z,17.50
2022-08-08T08:45:23.695Z,17.70
2022-08-08T08:49:09.858Z,17.80
2022-08-08T08:52:59.371Z,18.00
2022-08-08T08:56:41.800Z,18.10
2022-08-08T09:00:39.774Z,18.20
2022-08-08T09:04:38.690Z,18.30
2022-08-08T09:08:27.547Z,18.30
2022-08-08T09:12:12.012Z,18.40
2022-08-08T09:16:03.570Z,18.50
2022-08-08T09:21:58.981Z,18.60
2022-08-08T09:23:52.079Z,18.70
2022-08-08T09:27:41.990Z,18.90
2022-08-08T09:32:12.020Z,19.00
2022-08-08T09:35:56.934Z,19.10
2022-08-08T09:39:41.903Z,19.20
2022-08-08T09:44:03.031Z,19.40
2022-08-08T09:48:04.778Z,19.50
2022-08-08T09:51:41.552Z,19.60
2022-08-08T09:56:05.195Z,20.00
2022-08-08T10:00:02.817Z,20.90
2022-08-08T10:03:55.932Z,22.30
2022-08-08T10:07:45.757Z,23.90
2022-08-08T10:12:27.355Z,25.40
2022-08-08T10:15:39.069Z,26.80
2022-08-08T10:19:21.243Z,28.30
2022-08-08T10:23:04.593Z,29.50
2022-08-08T10:26:59.677Z,30.60
2022-08-08T10:31:01.056Z,31.50
2022-08-08T10:34:57.065Z,32.50
2022-08-08T10:38:43.006Z,33.30
2022-08-08T10:42:38.898Z,34.00
2022-08-08T10:46:30.231Z,34.70
2022-08-08T10:50:15.443Z,35.20
2022-08-08T10:53:59.754Z,35.80
2022-08-08T10:57:50.465Z,36.30
2022-08-08T11:01:39.384Z,36.80
2022-08-08T11:05:22.958Z,37.40
2022-08-08T11:09:15.545Z,38.00
2022-08-08T11:17:08.701Z,38.90
2022-08-08T11:21:00.957Z,39.30
2022-08-08T11:24:53.510Z,39.60
2022-08-08T11:28:38.849Z,40.10
2022-08-08T11:32:29.321Z,40.40
2022-08-08T11:36:15.099Z,40.50
2022-08-08T11:39:59.106Z,40.80
2022-08-08T11:43:45.135Z,41.30
2022-08-08T11:47:39.680Z,41.60
2022-08-08T11:51:39.686Z,41.70
2022-08-08T11:55:32.085Z,41.90
2022-08-08T11:59:13.889Z,42.30
2022-08-08T12:02:57.268Z,42.50
2022-08-08T12:06:40.792Z,42.70
2022-08-08T12:10:27.996Z,43.00
2022-08-08T12:14:11.026Z,43.40
2022-08-08T12:17:54.035Z,43.80
2022-08-08T12:21:58.551Z,43.90
2022-08-08T12:25:38.483Z,43.80
2022-08-08T12:29:42.512Z,43.90
2022-08-08T12:33:37.242Z,43.90
2022-08-08T12:37:25.875Z,44.20
2022-08-08T12:41:35.352Z,44.60
2022-08-08T12:45:58.328Z,44.70
2022-08-08T12:49:53.645Z,44.90
2022-08-08T12:53:44.147Z,45.20
2022-08-08T12:57:28.997Z,45.40
2022-08-08T13:01:14.070Z,45.40
2022-08-08T13:04:59.233Z,45.30
2022-08-08T13:08:53.425Z,45.20
2022-08-08T13:12:47.172Z,45.20
2022-08-08T13:16:33.640Z,44.80
2022-08-08T13:20:20.041Z,44.80
2022-08-08T13:24:06.324Z,45.00
2022-08-08T13:27:56.447Z,45.20
2022-08-08T13:31:51.722Z,45.10
2022-08-08T13:35:38.996Z,45.10
2022-08-08T13:39:25.687Z,44.80
2022-08-08T13:43:08.305Z,44.10
2022-08-08T13:47:08.321Z,44.20
2022-08-08T13:50:55.096Z,44.60
2022-08-08T13:54:44.416Z,45.10
2022-08-08T13:58:31.572Z,45.40
2022-08-08T14:02:20.647Z,45.40
2022-08-08T14:06:32.321Z,45.40
2022-08-08T14:10:17.734Z,45.20
2022-08-08T14:14:20.560Z,45.10
2022-08-08T14:18:35.556Z,45.10
2022-08-08T14:22:26.270Z,45.00
2022-08-08T14:26:10.858Z,44.90
2022-08-08T14:29:59.029Z,44.90
2022-08-08T14:33:43.420Z,44.90
2022-08-08T14:37:43.170Z,44.50
2022-08-08T14:41:54.786Z,43.40
2022-08-08T14:46:02.096Z,41.90
2022-08-08T14:50:02.536Z,40.70
2022-08-08T14:53:55.586Z,39.60
2022-08-08T14:58:06.540Z,38.80
2022-08-08T15:01:49.782Z,38.20
2022-08-08T15:05:43.150Z,37.70
2022-08-08T15:09:34.434Z,37.30
2022-08-08T15:13:17.581Z,36.80
2022-08-08T15:17:02.856Z,36.40
2022-08-08T15:20:45.169Z,36.20
2022-08-08T15:24:31.762Z,36.00
2022-08-08T15:28:34.169Z,35.90
2022-08-08T15:32:20.517Z,35.70
2022-08-08T15:36:05.257Z,35.50
2022-08-08T15:39:48.213Z,35.40
2022-08-08T15:43:36.472Z,35.30
2022-08-08T15:47:20.452Z,35.20
2022-08-08T15:51:06.131Z,35.10
2022-08-08T15:54:51.624Z,34.90
2022-08-08T15:58:35.528Z,34.80
2022-08-08T16:02:17.423Z,34.80
2022-08-08T16:06:01.851Z,34.70
2022-08-08T16:13:03.531Z,34.50
2022-08-08T16:13:47.046Z,34.40
2022-08-08T16:17:57.429Z,34.40
2022-08-08T16:21:34.855Z,34.30
2022-08-08T16:25:16.909Z,34.20
2022-08-08T16:29:01.980Z,34.20
2022-08-08T16:32:48.426Z,34.20
2022-08-08T16:36:34.071Z,34.10
2022-08-08T16:40:19.905Z,34.00
2022-08-08T16:44:01.937Z,33.90
2022-08-08T16:47:46.571Z,33.70
2022-08-08T16:55:02.815Z,33.70
2022-08-08T16:55:53.500Z,33.70
2022-08-08T16:59:51.961Z,33.60
2022-08-08T17:04:00.385Z,33.50
2022-08-08T17:07:37.735Z,33.30
2022-08-08T17:11:22.351Z,33.30
2022-08-08T17:15:17.553Z,33.20
2022-08-08T17:19:02.456Z,33.20
2022-08-08T17:22:44.870Z,33.10
2022-08-08T17:26:46.697Z,33.10
2022-08-08T17:30:31.478Z,33.00
2022-08-08T17:34:48.296Z,32.90
2022-08-08T17:38:16.795Z,32.80
2022-08-08T17:42:02.792Z,32.70
2022-08-08T17:45:44.744Z,32.50
2022-08-08T17:49:28.490Z,32.40
2022-08-08T17:53:37.372Z,32.30
2022-08-08T17:57:22.231Z,32.20
2022-08-08T18:01:10.191Z,32.00
2022-08-08T18:04:54.962Z,32.00
2022-08-08T18:08:41.373Z,31.80
2022-08-08T18:12:24.051Z,31.70
2022-08-08T18:16:06.257Z,31.50
2022-08-08T18:20:42.993Z,31.40
2022-08-08T18:23:55.760Z,31.30
2022-08-08T18:27:38.406Z,31.20
2022-08-08T18:31:27.739Z,31.10
2022-08-08T18:35:15.665Z,30.90
2022-08-08T18:38:58.642Z,30.80
2022-08-08T18:42:45.598Z,30.80
2022-08-08T18:46:54.802Z,30.70
2022-08-08T18:50:33.946Z,30.50
2022-08-08T18:54:22.799Z,30.40
2022-08-08T18:58:10.272Z,30.30
2022-08-08T19:02:25.541Z,30.20
2022-08-08T19:05:53.973Z,30.10
2022-08-08T19:09:49.344Z,29.90
2022-08-08T19:13:56.639Z,29.80
2022-08-08T19:17:48.266Z,29.70
2022-08-08T19:21:49.194Z,29.60
2022-08-08T19:26:19.984Z,29.50
2022-08-08T19:29:42.423Z,29.40
2022-08-08T19:33:51.860Z,29.20
2022-08-08T19:37:43.039Z,29.10
2022-08-08T19:41:33.714Z,28.90
2022-08-08T19:45:58.414Z,28.80
2022-08-08T19:49:22.181Z,28.60
2022-08-08T19:53:04.579Z,28.40
2022-08-08T19:57:07.671Z,28.30
2022-08-08T20:00:50.412Z,28.20
2022-08-08T20:04:35.991Z,28.00
2022-08-08T20:08:39.312Z,27.80
2022-08-08T20:12:32.360Z,27.70
2022-08-08T20:16:18.761Z,27.50
2022-08-08T20:20:01.280Z,27.40
2022-08-08T20:23:43.794Z,27.30
2022-08-08T20:27:26.044Z,27.20
2022-08-08T20:31:14.895Z,27.00
2022-08-08T20:35:02.398Z,26.90
2022-08-08T20:38:44.381Z,26.80
2022-08-08T20:42:29.049Z,26.70
2022-08-08T20:46:11.468Z,26.60
2022-08-08T20:49:55.921Z,26.40
2022-08-08T20:53:59.233Z,26.30
2022-08-08T20:57:43.990Z,26.20
2022-08-08T21:01:31.814Z,26.00
2022-08-08T21:05:13.978Z,25.90
2022-08-08T21:08:58.892Z,25.70
2022-08-08T21:12:41.436Z,25.60
2022-08-08T21:16:29.014Z,25.40
2022-08-08T21:20:11.313Z,25.30
2022-08-08T21:23:59.051Z,25.10
2022-08-08T21:28:09.523Z,25.00
2022-08-08T21:31:58.782Z,24.80
2022-08-08T21:36:14.563Z,24.60
2022-08-08T21:39:56.341Z,24.40
2022-08-08T21:43:39.225Z,24.20
2022-08-08T21:48:03.905Z,24.10
2022-08-08T21:54:18.739Z,24.00
2022-08-08T21:56:19.557Z,23.80
2022-08-08T22:00:01.481Z,23.70
2022-08-08T22:03:30.718Z,23.60
2022-08-08T22:07:12.573Z,23.50
2022-08-08T22:10:55.259Z,23.40
2022-08-08T22:14:39.020Z,23.30
2022-08-08T22:18:24.647Z,23.20
2022-08-08T22:22:07.031Z,23.00
2022-08-08T22:26:26.957Z,22.70
2022-08-08T22:30:02.790Z,22.50
2022-08-08T22:34:13.672Z,22.40
2022-08-08T22:37:54.323Z,22.30
2022-08-08T22:41:36.718Z,22.10
2022-08-08T22:45:21.165Z,22.00
2022-08-08T22:49:03.526Z,21.80
2022-08-08T22:53:01.571Z,21.70
2022-08-08T22:56:50.174Z,21.70
2022-08-08T23:00:32.435Z,21.60
2022-08-08T23:04:14.594Z,21.40
2022-08-08T23:08:17.980Z,21.30
2022-08-08T23:12:28.935Z,21.20
2022-08-08T23:16:39.241Z,21.10
2022-08-08T23:20:06.069Z,21.00
2022-08-08T23:23:48.826Z,21.10
2022-08-08T23:27:46.285Z,21.10
2022-08-08T23:31:28.604Z,21.00
2022-08-08T23:35:16.933Z,21.00
2022-08-08T23:38:59.223Z,20.90
2022-08-08T23:42:41.032Z,20.80
2022-08-08T23:49:01.800Z,20.80
2022-08-08T23:50:29.980Z,20.70
2022-08-08T23:54:42.791Z,20.60
2022-08-08T23:58:22.314Z,20.50
